Crosby, Minnesota
Current Conditions -  °F | °C
As of 6:16 PM on Tuesday 25 Nov 2014 (Local Time) from KBRD Reporting Station
Broken Clouds Broken Clouds  
Wind Chill: 17°   Ceiling: 2900
Heat Index: 17°   Visibility: 10mi
Dew Point:   Wind: 0mph
Humidity: 65%   Direction: NA
Pressure: 29.97"   Gusts: NA
Location:  46.48°N, 93.96°W
Report Text: KBRD 260016Z AUTO 00000KT 10SM BKN029 M08/M14 A2997 RMK AO2 T10831139
Loading
Personal Weather Stations






























Interactive Weather Map New forecast layout! Learn more

10-Day Weather Forecast

Advertisements
Track Severe Weather on mobile